Time;durP1;ratioP1;P1;durP2;ratioP2;P2;SDS_P1;SDS_P2;PMS_P1;PMS_P2;Temp;Humidity;BMP_temperature;BMP_pressure;BME280_temperature;BME280_humidity;BME280_pressure;Samples;Min_cycle;Max_cycle;Signal;HPM_P1;HPM_P2
2023/04/19 00:00:21;;;;;;;0.30;0.30;;;;;;;10.04;100.00;100035.75;4998114;28;20033;-71
2023/04/19 00:02:50;;;;;;;0.20;0.20;;;;;;;10.01;100.00;100032.88;4998398;28;20116;-71
2023/04/19 00:05:15;;;;;;;0.20;0.20;;;;;;;9.98;100.00;100037.19;4997721;28;20126;-71
2023/04/19 00:07:41;;;;;;;0.20;0.20;;;;;;;10.00;100.00;100039.59;4998285;28;20066;-71
2023/04/19 00:10:07;;;;;;;0.20;0.20;;;;;;;9.94;100.00;100036.31;4998007;28;20139;-71
2023/04/19 00:12:35;;;;;;;0.30;0.30;;;;;;;9.97;100.00;100030.84;4997633;28;20490;-71
2023/04/19 00:15:01;;;;;;;0.20;0.20;;;;;;;9.92;100.00;100027.53;4997801;28;20068;-71
2023/04/19 00:17:26;;;;;;;0.20;0.20;;;;;;;9.96;100.00;100043.13;4997518;28;20398;-71
2023/04/19 00:19:52;;;;;;;0.30;0.30;;;;;;;9.87;100.00;100038.94;4997790;28;20109;-71
2023/04/19 00:22:18;;;;;;;0.30;0.30;;;;;;;9.85;100.00;100033.72;4997427;28;20064;-71
2023/04/19 00:24:43;;;;;;;0.30;0.30;;;;;;;9.87;100.00;100036.16;4997791;28;20129;-71
2023/04/19 00:27:09;;;;;;;0.30;0.30;;;;;;;9.85;100.00;100033.72;4997607;28;20099;-71
2023/04/19 00:29:34;;;;;;;0.20;0.20;;;;;;;9.79;100.00;100042.69;4993805;28;20058;-71
2023/04/19 00:32:04;;;;;;;0.20;0.20;;;;;;;9.75;100.00;100039.84;4994547;28;20041;-71
2023/04/19 00:34:32;;;;;;;0.20;0.20;;;;;;;9.73;100.00;100030.25;4994898;28;20037;-71
2023/04/19 00:37:00;;;;;;;0.20;0.20;;;;;;;9.66;100.00;100025.34;4993934;28;20030;-71
2023/04/19 00:39:26;;;;;;;0.20;0.20;;;;;;;9.84;100.00;100026.53;4993617;28;20030;-71
2023/04/19 00:41:51;;;;;;;0.30;0.30;;;;;;;9.85;100.00;100036.47;4993796;28;20188;-71
2023/04/19 00:44:19;;;;;;;0.20;0.20;;;;;;;9.82;100.00;100028.88;4993732;28;20034;-71
2023/04/19 00:46:45;;;;;;;0.20;0.20;;;;;;;9.80;100.00;100025.69;4993794;28;20077;-71
2023/04/19 00:49:10;;;;;;;0.20;0.20;;;;;;;9.71;100.00;100022.28;4993689;28;20124;-71
2023/04/19 00:51:37;;;;;;;0.20;0.20;;;;;;;9.66;100.00;100023.34;4993672;28;20030;-71
2023/04/19 00:54:07;;;;;;;0.20;0.20;;;;;;;9.75;100.00;100028.72;4993522;28;20163;-70
2023/04/19 00:56:33;;;;;;;0.20;0.20;;;;;;;9.71;100.00;100027.84;4994858;28;20425;-71
2023/04/19 00:59:01;;;;;;;0.30;0.30;;;;;;;9.74;100.00;100021.53;4993054;28;20122;-71
2023/04/19 01:01:27;;;;;;;0.20;0.20;;;;;;;9.67;100.00;100024.97;4993742;28;20026;-71
2023/04/19 01:03:53;;;;;;;0.30;0.30;;;;;;;9.66;100.00;100025.34;4993403;28;20096;-71
2023/04/19 01:06:19;;;;;;;0.30;0.30;;;;;;;9.59;100.00;100025.97;4993449;28;20038;-71
2023/04/19 01:08:47;;;;;;;0.20;0.20;;;;;;;9.59;100.00;100027.94;4994022;28;20465;-71
2023/04/19 01:11:13;;;;;;;0.20;0.20;;;;;;;9.56;100.00;100025.88;4993666;28;20026;-71
2023/04/19 01:13:43;;;;;;;0.20;0.20;;;;;;;9.53;100.00;100021.84;4993287;28;20100;-70
2023/04/19 01:16:09;;;;;;;0.20;0.20;;;;;;;9.48;100.00;100024.06;4993570;28;20054;-71
2023/04/19 01:18:39;;;;;;;0.20;0.20;;;;;;;9.49;100.00;100026.53;4993574;28;20076;-71
2023/04/19 01:21:06;;;;;;;0.20;0.20;;;;;;;9.47;100.00;100028.03;4993421;28;20045;-71
2023/04/19 01:23:39;;;;;;;0.20;0.20;;;;;;;9.48;100.00;100030.47;4993701;28;20035;-71
2023/04/19 01:26:05;;;;;;;0.20;0.20;;;;;;;9.45;100.00;100026.41;4995017;28;20026;-71
2023/04/19 01:28:31;;;;;;;0.20;0.20;;;;;;;9.45;100.00;100037.53;4996367;28;20061;-70
2023/04/19 01:31:02;;;;;;;0.20;0.20;;;;;;;9.39;100.00;100032.59;5013781;28;20022;-70
2023/04/19 01:33:30;;;;;;;0.20;0.20;;;;;;;9.29;100.00;100028.41;4996302;28;20084;-71
2023/04/19 01:35:55;;;;;;;0.20;0.20;;;;;;;9.28;100.00;100031.53;4996603;28;20544;-70
2023/04/19 01:38:24;;;;;;;0.20;0.20;;;;;;;9.24;100.00;100027.84;4996348;28;20164;-70
2023/04/19 01:40:52;;;;;;;0.20;0.20;;;;;;;9.18;100.00;100030.09;4996257;28;20034;-70
2023/04/19 01:43:17;;;;;;;0.20;0.20;;;;;;;9.20;100.00;100036.09;4997136;28;20384;-70
2023/04/19 01:45:44;;;;;;;0.20;0.20;;;;;;;9.19;100.00;100034.47;4996526;28;20040;-70
2023/04/19 01:48:09;;;;;;;0.20;0.20;;;;;;;9.15;100.00;100039.13;4996645;28;20108;-71
2023/04/19 01:50:41;;;;;;;0.30;0.30;;;;;;;9.05;100.00;100034.09;5016368;28;20038;-71
2023/04/19 01:53:09;;;;;;;0.30;0.30;;;;;;;9.13;100.00;100038.69;4998881;28;20030;-71
2023/04/19 01:55:37;;;;;;;0.20;0.20;;;;;;;9.04;100.00;100032.47;4996659;28;20365;-71
2023/04/19 01:58:02;;;;;;;0.20;0.20;;;;;;;9.02;100.00;100038.41;4996183;28;20068;-71
2023/04/19 02:00:28;;;;;;;0.20;0.20;;;;;;;9.12;100.00;100028.75;4996282;28;20062;-71
2023/04/19 02:02:53;;;;;;;0.30;0.30;;;;;;;9.10;100.00;100031.06;4996411;28;20057;-71
2023/04/19 02:05:24;;;;;;;0.20;0.20;;;;;;;9.07;100.00;100029.00;4996299;28;20029;-71
2023/04/19 02:07:52;;;;;;;0.20;0.20;;;;;;;9.02;100.00;100034.81;4996034;28;20113;-71
2023/04/19 02:10:18;;;;;;;0.30;0.30;;;;;;;9.07;100.00;100040.13;4996860;28;20029;-71
2023/04/19 02:12:43;;;;;;;0.20;0.20;;;;;;;9.03;100.00;100039.22;4996088;28;20404;-71
2023/04/19 02:15:09;;;;;;;0.20;0.20;;;;;;;9.06;100.00;100036.53;4997402;28;20076;-70
2023/04/19 02:17:35;;;;;;;0.20;0.20;;;;;;;9.10;100.00;100036.59;4999741;28;20033;-70
2023/04/19 02:20:00;;;;;;;0.20;0.20;;;;;;;9.10;100.00;100028.28;4999782;28;20030;-70
2023/04/19 02:22:30;;;;;;;0.20;0.20;;;;;;;9.10;100.00;100028.28;4999915;28;20030;-70
2023/04/19 02:24:56;;;;;;;0.20;0.20;;;;;;;9.11;100.00;100032.69;5000399;28;20445;-70
2023/04/19 02:27:24;;;;;;;0.20;0.20;;;;;;;9.11;100.00;100027.16;4999868;28;20068;-70
2023/04/19 02:29:52;;;;;;;0.20;0.20;;;;;;;9.08;100.00;100027.84;4995910;28;20043;-70
2023/04/19 02:32:20;;;;;;;0.20;0.20;;;;;;;9.08;100.00;100027.84;4996212;28;20030;-70
2023/04/19 02:34:51;;;;;;;0.20;0.20;;;;;;;9.10;100.00;100034.63;4996717;28;20038;-70
2023/04/19 02:37:17;;;;;;;0.20;0.20;;;;;;;9.05;100.00;100040.44;4996470;28;20037;-70
2023/04/19 02:39:45;;;;;;;0.20;0.20;;;;;;;9.06;100.00;100035.72;4996148;28;20033;-70
2023/04/19 02:42:13;;;;;;;0.20;0.20;;;;;;;9.08;100.00;100027.84;4996041;28;20024;-70
2023/04/19 02:44:38;;;;;;;0.20;0.20;;;;;;;9.04;100.00;100038.03;4996338;28;20109;-70
2023/04/19 02:47:09;;;;;;;0.20;0.20;;;;;;;9.08;100.00;100028.66;4996108;28;20493;-70
2023/04/19 02:49:40;;;;;;;0.20;0.20;;;;;;;8.90;100.00;100030.97;4996257;28;20046;-71
2023/04/19 02:52:06;;;;;;;0.20;0.20;;;;;;;8.82;100.00;100031.91;4995930;28;20477;-70
2023/04/19 02:54:32;;;;;;;0.20;0.20;;;;;;;8.63;100.00;99998.50;4995800;28;20034;-70
2023/04/19 02:56:57;;;;;;;0.20;0.20;;;;;;;8.83;100.00;100027.97;4995817;28;20026;-70
2023/04/19 02:59:23;;;;;;;0.30;0.30;;;;;;;8.78;100.00;100032.97;4995971;28;20113;-71
2023/04/19 03:01:53;;;;;;;0.20;0.20;;;;;;;8.84;100.00;100034.31;4996048;28;20034;-70
2023/04/19 03:04:19;;;;;;;0.20;0.20;;;;;;;8.83;100.00;100032.72;4995696;28;20031;-70
2023/04/19 03:06:44;;;;;;;0.20;0.20;;;;;;;8.87;100.00;100041.94;4979483;28;20150;-70
2023/04/19 03:09:12;;;;;;;0.20;0.20;;;;;;;8.79;100.00;100027.09;4996106;28;20085;-70
2023/04/19 03:11:45;;;;;;;0.20;0.20;;;;;;;8.82;100.00;100029.13;4995811;28;20030;-70
2023/04/19 03:14:11;;;;;;;0.30;0.30;;;;;;;8.89;100.00;100037.69;4996041;28;20116;-71
2023/04/19 03:16:37;;;;;;;0.20;0.20;;;;;;;9.00;100.00;100032.41;4995441;28;20114;-70
2023/04/19 03:19:05;;;;;;;0.20;0.20;;;;;;;8.93;100.00;100033.00;4995415;28;20034;-71
2023/04/19 03:21:33;;;;;;;0.20;0.20;;;;;;;8.96;100.00;100036.25;4995632;28;20030;-71
2023/04/19 03:24:00;;;;;;;0.30;0.30;;;;;;;9.01;100.00;100033.22;4995352;28;20121;-71
2023/04/19 03:26:28;;;;;;;0.30;0.30;;;;;;;8.97;100.00;100037.84;4994197;28;20081;-71
2023/04/19 03:28:56;;;;;;;0.30;0.30;;;;;;;8.92;100.00;100042.50;4995572;28;20458;-71
2023/04/19 03:31:22;;;;;;;0.20;0.20;;;;;;;8.98;100.00;100034.72;4995837;28;20089;-71
2023/04/19 03:33:47;;;;;;;0.20;0.20;;;;;;;9.09;100.00;100040.56;4995109;28;20397;-71
2023/04/19 03:36:15;;;;;;;0.20;0.20;;;;;;;9.14;100.00;100032.78;4995684;28;20026;-71
2023/04/19 03:38:40;;;;;;;0.20;0.20;;;;;;;9.16;100.00;100032.41;4995584;28;20353;-71
2023/04/19 03:41:20;;;;;;;0.30;0.30;;;;;;;9.18;100.00;100038.41;4995278;28;20038;-71
2023/04/19 03:43:48;;;;;;;0.20;0.20;;;;;;;9.23;100.00;100035.38;4994983;28;20030;-71
2023/04/19 03:46:16;;;;;;;0.30;0.30;;;;;;;9.27;100.00;100039.06;4994944;28;20073;-70
2023/04/19 03:48:42;;;;;;;0.20;0.20;;;;;;;9.27;100.00;100047.41;4994902;28;20066;-70
2023/04/19 03:51:13;;;;;;;0.20;0.20;;;;;;;9.21;100.00;100046.03;4994767;28;20112;-71
2023/04/19 03:53:38;;;;;;;0.30;0.30;;;;;;;9.19;100.00;100046.38;4994981;28;20026;-71
2023/04/19 03:56:04;;;;;;;0.20;0.20;;;;;;;9.23;100.00;100051.25;4995022;28;20057;-71
2023/04/19 03:58:30;;;;;;;0.30;0.30;;;;;;;9.23;100.00;100057.59;4995315;28;20081;-71
2023/04/19 04:01:00;;;;;;;0.20;0.20;;;;;;;9.22;100.00;100060.72;4994888;28;20034;-70
2023/04/19 04:03:26;;;;;;;0.20;0.20;;;;;;;9.25;100.00;100060.81;4995164;28;20037;-71
2023/04/19 04:05:59;;;;;;;0.20;0.20;;;;;;;9.27;100.00;100057.66;4994810;28;20483;-71
2023/04/19 04:08:24;;;;;;;0.30;0.30;;;;;;;9.30;100.00;100052.22;4994588;28;20030;-71
2023/04/19 04:10:50;;;;;;;0.30;0.30;;;;;;;9.34;100.00;100053.13;4994717;28;20037;-70
2023/04/19 04:13:15;;;;;;;0.20;0.20;;;;;;;9.42;100.00;100052.13;4994705;28;20452;-71
2023/04/19 04:15:41;;;;;;;0.20;0.20;;;;;;;9.40;100.00;100067.53;4994323;28;20026;-71
2023/04/19 04:18:09;;;;;;;0.30;0.30;;;;;;;9.47;100.00;100062.16;4994627;28;20037;-70
2023/04/19 04:20:37;;;;;;;0.20;0.20;;;;;;;9.42;100.00;100066.00;4995454;28;20485;-71
2023/04/19 04:23:02;;;;;;;0.20;0.20;;;;;;;9.47;100.00;100058.56;4996647;28;20053;-71
2023/04/19 04:25:31;;;;;;;0.30;0.30;;;;;;;9.47;100.00;100059.38;4999115;28;20034;-72
2023/04/19 04:27:57;;;;;;;0.20;0.20;;;;;;;9.48;100.00;100074.06;4999014;28;20026;-70
2023/04/19 04:30:27;;;;;;;0.30;0.30;;;;;;;9.47;100.00;100066.91;4996642;28;20088;-71
2023/04/19 04:32:57;;;;;;;0.20;0.20;;;;;;;9.52;100.00;100069.41;4994258;28;20030;-71
2023/04/19 04:35:26;;;;;;;0.20;0.20;;;;;;;9.52;100.00;100067.44;4995255;28;20057;-71
2023/04/19 04:37:55;;;;;;;0.20;0.20;;;;;;;9.57;100.00;100066.38;4993911;28;20125;-71
2023/04/19 04:40:23;;;;;;;0.20;0.20;;;;;;;9.56;100.00;100067.53;4994174;28;20121;-71
2023/04/19 04:42:51;;;;;;;0.30;0.30;;;;;;;9.63;100.00;100076.84;4993828;28;20062;-70
2023/04/19 04:45:20;;;;;;;0.20;0.20;;;;;;;9.65;100.00;100073.72;4995069;28;20034;-71
2023/04/19 04:47:48;;;;;;;0.20;0.20;;;;;;;9.69;100.00;100077.38;4993756;28;20026;-71
2023/04/19 04:50:16;;;;;;;0.20;0.20;;;;;;;9.71;100.00;100080.63;4993809;28;20041;-71
2023/04/19 04:52:41;;;;;;;0.20;0.20;;;;;;;9.77;100.00;100084.75;4993684;28;20165;-71
2023/04/19 04:55:09;;;;;;;0.30;0.30;;;;;;;9.80;100.00;100084.03;4993570;28;20124;-71
2023/04/19 04:57:35;;;;;;;0.20;0.20;;;;;;;9.79;100.00;100087.94;4995153;28;20524;-71
2023/04/19 05:00:01;;;;;;;0.30;0.30;;;;;;;9.81;100.00;100088.41;4993691;28;20034;-71
2023/04/19 05:02:29;;;;;;;0.20;0.20;;;;;;;9.85;100.00;100077.38;4993557;28;20034;-71
2023/04/19 05:04:59;;;;;;;0.20;0.20;;;;;;;9.97;100.00;100082.84;4993718;28;20397;-71
2023/04/19 05:07:29;;;;;;;0.20;0.20;;;;;;;9.76;100.00;100069.25;4993493;28;20038;-71
2023/04/19 05:09:55;;;;;;;0.20;0.20;;;;;;;9.87;100.00;100092.53;4993465;28;20030;-71
2023/04/19 05:12:20;;;;;;;0.20;0.20;;;;;;;9.94;100.00;100092.69;4994151;28;20041;-71
2023/04/19 05:14:48;;;;;;;0.22;0.22;;;;;;;10.00;100.00;100095.19;4993263;28;20393;-71
2023/04/19 05:17:16;;;;;;;0.20;0.20;;;;;;;9.97;100.00;100097.53;4994165;28;20026;-71
2023/04/19 05:19:41;;;;;;;0.20;0.20;;;;;;;9.96;100.00;100092.34;4993346;28;20061;-71
2023/04/19 05:22:07;;;;;;;0.30;0.30;;;;;;;9.95;100.00;100085.97;4994135;28;20100;-72
2023/04/19 05:24:32;;;;;;;0.20;0.20;;;;;;;10.01;100.00;100096.81;4993270;28;20497;-71
2023/04/19 05:27:00;;;;;;;0.20;0.20;;;;;;;10.08;100.00;100092.22;4993749;28;20026;-70
2023/04/19 05:29:26;;;;;;;0.30;0.30;;;;;;;10.13;100.00;100089.16;4992721;28;20081;-71
2023/04/19 05:31:56;;;;;;;0.20;0.20;;;;;;;10.15;100.00;100086.03;4993794;28;20064;-71
2023/04/19 05:34:24;;;;;;;0.20;0.20;;;;;;;10.21;100.00;100096.50;4993343;28;20054;-71
2023/04/19 05:36:52;;;;;;;0.20;0.20;;;;;;;10.24;100.00;100095.00;4993446;28;20048;-71
2023/04/19 05:39:20;;;;;;;0.30;0.30;;;;;;;10.25;100.00;100096.63;4993391;28;20030;-71
2023/04/19 05:41:46;;;;;;;0.20;0.20;;;;;;;10.33;100.00;100098.38;4993673;28;20038;-71
2023/04/19 05:44:15;;;;;;;0.20;0.20;;;;;;;10.40;100.00;100095.78;4993669;28;20042;-71
2023/04/19 05:46:40;;;;;;;0.30;0.30;;;;;;;10.41;100.00;100099.34;4993657;28;20381;-70
2023/04/19 05:49:06;;;;;;;0.20;0.20;;;;;;;10.39;100.00;100096.13;4993029;28;20038;-70
2023/04/19 05:51:31;;;;;;;0.20;0.20;;;;;;;10.42;100.00;100100.97;4997060;28;20033;-70
2023/04/19 05:53:58;;;;;;;0.20;0.20;;;;;;;10.54;100.00;100105.56;4997191;28;20085;-70
2023/04/19 05:56:28;;;;;;;0.20;0.20;;;;;;;10.55;100.00;100112.78;4997240;28;20022;-70
2023/04/19 05:58:59;;;;;;;0.20;0.20;;;;;;;10.48;100.00;100110.63;4997173;28;20480;-70
2023/04/19 06:01:27;;;;;;;0.20;0.20;;;;;;;10.44;100.00;100115.31;4996881;28;20023;-70
2023/04/19 06:03:53;;;;;;;0.20;0.20;;;;;;;10.49;100.00;100115.00;4997027;28;20466;-71
2023/04/19 06:06:26;;;;;;;0.20;0.20;;;;;;;10.56;100.00;100117.16;4997063;28;20034;-70
2023/04/19 06:08:54;;;;;;;0.20;0.20;;;;;;;10.60;100.00;100118.03;4997080;28;20180;-70
2023/04/19 06:11:25;;;;;;;0.20;0.20;;;;;;;10.61;100.00;100123.25;4997196;28;20022;-70
2023/04/19 06:13:52;;;;;;;0.30;0.30;;;;;;;10.59;100.00;100116.41;4996510;28;20037;-70
2023/04/19 06:16:21;;;;;;;0.20;0.20;;;;;;;10.71;100.00;100110.75;4998088;28;20457;-70
2023/04/19 06:18:49;;;;;;;0.20;0.20;;;;;;;10.78;100.00;100119.22;4996725;28;20041;-70
2023/04/19 06:21:17;;;;;;;0.20;0.20;;;;;;;10.79;100.00;100106.13;4996497;28;20033;-70
2023/04/19 06:23:45;;;;;;;0.30;0.30;;;;;;;10.86;100.00;100109.84;4995282;28;20053;-70
2023/04/19 06:26:10;;;;;;;0.20;0.20;;;;;;;10.91;100.00;100109.53;4996658;28;20469;-70
2023/04/19 06:28:38;;;;;;;0.20;0.20;;;;;;;10.98;100.00;100112.50;4995879;28;20065;-70
2023/04/19 06:31:06;;;;;;;0.20;0.20;;;;;;;11.02;100.00;100101.41;4997184;28;20037;-70
2023/04/19 06:33:32;;;;;;;0.20;0.20;;;;;;;11.17;100.00;100105.28;4996205;28;20113;-70
2023/04/19 06:35:57;;;;;;;0.20;0.20;;;;;;;11.24;100.00;100102.66;4996190;28;20117;-70
2023/04/19 06:38:23;;;;;;;0.20;0.20;;;;;;;11.39;100.00;100107.28;4996476;28;20100;-71
2023/04/19 06:40:51;;;;;;;0.30;0.30;;;;;;;11.51;100.00;100103.53;4996145;28;20393;-71
2023/04/19 06:43:17;;;;;;;0.20;0.20;;;;;;;11.74;100.00;100104.31;4996375;28;20034;-70
2023/04/19 06:45:45;;;;;;;0.20;0.20;;;;;;;11.87;100.00;100101.38;4995981;28;20492;-70
2023/04/19 06:48:12;;;;;;;0.20;0.20;;;;;;;12.06;100.00;100093.72;4996005;28;20062;-70
2023/04/19 06:50:40;;;;;;;0.20;0.20;;;;;;;12.21;100.00;100105.91;4996246;28;20042;-70
2023/04/19 06:53:09;;;;;;;0.20;0.20;;;;;;;12.38;100.00;100098.97;4996466;28;20385;-70
2023/04/19 06:55:37;;;;;;;0.20;0.20;;;;;;;12.44;100.00;100105.81;4997189;28;20038;-70
2023/04/19 06:58:02;;;;;;;0.20;0.20;;;;;;;12.66;100.00;100111.69;4996168;28;20037;-69
2023/04/19 07:00:28;;;;;;;0.30;0.30;;;;;;;12.85;100.00;100112.34;4996689;28;20042;-69
2023/04/19 07:02:54;;;;;;;0.20;0.20;;;;;;;13.04;100.00;100113.38;4995918;28;20038;-69
2023/04/19 07:05:19;;;;;;;0.20;0.20;;;;;;;12.97;100.00;100102.91;4995798;28;20125;-69
2023/04/19 07:07:45;;;;;;;0.20;0.20;;;;;;;13.10;100.00;100107.06;4995772;28;20041;-69
2023/04/19 07:10:11;;;;;;;0.20;0.20;;;;;;;13.43;100.00;100105.47;4995708;28;20031;-68
2023/04/19 07:12:37;;;;;;;0.20;0.20;;;;;;;13.40;100.00;100113.78;4997466;28;20030;-68
2023/04/19 07:15:03;;;;;;;0.20;0.20;;;;;;;13.62;100.00;100110.81;4995434;28;20037;-68
2023/04/19 07:17:32;;;;;;;0.20;0.20;;;;;;;13.73;100.00;100115.69;4995435;28;20034;-68
2023/04/19 07:20:02;;;;;;;0.20;0.20;;;;;;;13.73;100.00;100110.91;4996057;28;20027;-67
2023/04/19 07:22:28;;;;;;;0.20;0.20;;;;;;;13.86;100.00;100108.63;4997330;28;20542;-68
2023/04/19 07:24:58;;;;;;;0.20;0.20;;;;;;;13.91;99.76;100113.09;4995493;28;20026;-68
2023/04/19 07:27:24;;;;;;;0.20;0.20;;;;;;;13.92;94.90;100123.88;4995574;28;20034;-67
2023/04/19 07:29:51;;;;;;;0.20;0.20;;;;;;;15.18;95.76;100110.22;4996201;28;20053;-69
2023/04/19 07:32:18;;;;;;;0.20;0.20;;;;;;;15.84;80.50;100118.38;4996013;28;20022;-68
2023/04/19 07:34:45;;;;;;;0.20;0.20;;;;;;;16.63;77.32;100121.09;4995420;28;20031;-68
2023/04/19 07:37:11;;;;;;;0.20;0.20;;;;;;;16.87;67.00;100122.22;4995124;28;20477;-68
2023/04/19 07:39:39;;;;;;;0.20;0.20;;;;;;;17.41;69.23;100128.38;4995313;28;20056;-68
2023/04/19 07:42:06;;;;;;;0.20;0.20;;;;;;;17.89;70.25;100136.94;4994881;28;20101;-68
2023/04/19 07:44:35;;;;;;;0.30;0.30;;;;;;;17.59;70.62;100133.94;4995298;28;20049;-68
2023/04/19 07:47:03;;;;;;;0.20;0.20;;;;;;;18.01;71.82;100128.00;4995977;28;20045;-68
2023/04/19 07:49:33;;;;;;;0.20;0.20;;;;;;;18.11;64.50;100128.31;4995101;28;20037;-67
2023/04/19 07:52:00;;;;;;;0.20;0.20;;;;;;;18.33;64.74;100121.28;4994514;28;20034;-68
2023/04/19 07:54:29;;;;;;;0.20;0.20;;;;;;;18.47;62.05;100125.97;4994508;28;20038;-69
2023/04/19 07:56:55;;;;;;;0.20;0.20;;;;;;;18.64;57.00;100121.34;4995025;28;20501;-69
2023/04/19 07:59:20;;;;;;;0.20;0.20;;;;;;;18.68;58.58;100119.34;4994816;28;20054;-69
2023/04/19 08:01:49;;;;;;;0.20;0.20;;;;;;;19.04;55.59;100131.00;4994448;28;20064;-69
2023/04/19 08:04:16;;;;;;;0.20;0.20;;;;;;;19.92;55.93;100128.16;4994734;28;20031;-69
2023/04/19 08:06:45;;;;;;;0.20;0.20;;;;;;;20.06;51.75;100127.91;4994349;28;20030;-69
2023/04/19 08:09:16;;;;;;;0.20;0.20;;;;;;;20.56;52.51;100135.56;4994552;28;20026;-69
2023/04/19 08:11:44;;;;;;;0.20;0.20;;;;;;;21.09;48.86;100132.88;4994159;28;20030;-69
2023/04/19 08:14:12;;;;;;;0.20;0.20;;;;;;;20.23;50.71;100137.31;4993474;28;20084;-69
2023/04/19 08:16:37;;;;;;;0.20;0.20;;;;;;;20.78;50.64;100132.31;4994362;28;20105;-69
2023/04/19 08:19:03;;;;;;;0.20;0.20;;;;;;;20.88;50.66;100126.44;4994268;28;20136;-69
2023/04/19 08:21:31;;;;;;;0.20;0.20;;;;;;;20.56;50.54;100126.25;4994362;28;20141;-69
2023/04/19 08:23:56;;;;;;;0.20;0.20;;;;;;;21.10;48.91;100131.66;4994327;28;20049;-69
2023/04/19 08:26:22;;;;;;;0.20;0.20;;;;;;;20.05;51.26;100131.19;4995240;28;20144;-68
2023/04/19 08:28:50;;;;;;;0.20;0.20;;;;;;;20.37;51.11;100130.63;4996359;28;20061;-68
2023/04/19 08:31:15;;;;;;;0.20;0.20;;;;;;;19.48;51.87;100127.16;4997671;28;20046;-69
2023/04/19 08:33:41;;;;;;;0.20;0.20;;;;;;;20.15;52.49;100130.19;4997328;28;20466;-68
2023/04/19 08:36:07;;;;;;;0.20;0.20;;;;;;;19.81;52.49;100122.66;4997070;28;20033;-68
2023/04/19 08:38:32;;;;;;;0.20;0.20;;;;;;;20.57;50.02;100125.03;4997511;28;20029;-68
2023/04/19 08:40:58;;;;;;;0.20;0.20;;;;;;;21.53;48.05;100125.09;4997078;28;20483;-68
2023/04/19 08:43:27;;;;;;;0.20;0.20;;;;;;;21.66;46.79;100111.84;4997017;28;20065;-68
2023/04/19 08:45:54;;;;;;;0.20;0.20;;;;;;;22.21;46.55;100113.75;4997386;28;20053;-68
2023/04/19 08:48:24;;;;;;;0.20;0.20;;;;;;;22.30;44.90;100115.94;5014159;28;20029;-68
2023/04/19 08:50:50;;;;;;;0.20;0.20;;;;;;;22.45;45.25;100117.16;4997241;28;20037;-68
2023/04/19 08:53:16;;;;;;;0.20;0.20;;;;;;;22.26;44.32;100103.88;4996337;28;20045;-69
2023/04/19 08:55:45;;;;;;;0.20;0.20;;;;;;;21.02;46.68;100101.91;4997191;28;20130;-68
2023/04/19 08:58:11;;;;;;;0.20;0.20;;;;;;;20.35;47.19;100111.28;4997095;28;20026;-68
2023/04/19 09:00:40;;;;;;;0.20;0.20;;;;;;;20.96;45.94;100098.00;4996736;28;20387;-68
2023/04/19 09:03:07;;;;;;;0.20;0.20;;;;;;;20.74;46.91;100092.78;4996486;28;20510;-68
2023/04/19 09:05:33;;;;;;;0.20;0.20;;;;;;;20.82;44.67;100111.19;5014752;28;20088;-67
2023/04/19 09:08:21;;;;;;;0.20;0.20;;;;;;;21.13;45.27;100099.66;4997046;28;20465;-68
2023/04/19 09:10:56;;;;;;;0.20;0.20;;;;;;;21.08;44.92;100100.16;4996532;28;20054;-67
2023/04/19 09:13:25;;;;;;;0.20;0.20;;;;;;;21.38;45.30;100099.94;4996495;28;20041;-68
2023/04/19 09:15:56;;;;;;;0.20;0.20;;;;;;;21.65;43.55;100101.75;4996315;28;20021;-68
2023/04/19 09:18:24;;;;;;;0.20;0.20;;;;;;;21.43;43.56;100095.78;5013842;28;20033;-68
2023/04/19 09:20:56;;;;;;;0.20;0.20;;;;;;;22.10;43.71;100092.53;4996908;28;20045;-68
2023/04/19 09:23:25;;;;;;;0.20;0.20;;;;;;;21.76;42.93;100093.78;4996497;28;20038;-67
2023/04/19 09:25:56;;;;;;;0.20;0.20;;;;;;;20.86;44.29;100094.97;4995775;28;20033;-68
2023/04/19 09:28:23;;;;;;;0.20;0.20;;;;;;;20.66;45.72;100099.81;4997421;28;20460;-67
2023/04/19 09:30:49;;;;;;;0.20;0.20;;;;;;;21.96;43.73;100099.38;4991865;28;20050;-67
2023/04/19 09:33:38;;;;;;;0.20;0.20;;;;;;;23.11;40.49;100094.25;4993262;28;20031;-67
2023/04/19 09:36:07;;;;;;;0.20;0.20;;;;;;;22.12;41.20;100098.59;4992560;28;20026;-66
2023/04/19 09:38:52;;;;;;;0.20;0.20;;;;;;;22.85;40.49;100096.19;4993142;28;20034;-66
2023/04/19 09:41:18;;;;;;;0.20;0.20;;;;;;;23.10;39.13;100092.66;4992602;28;20062;-67
2023/04/19 09:43:44;;;;;;;0.20;0.20;;;;;;;23.42;39.30;100069.75;4992840;28;20073;-67
2023/04/19 09:46:35;;;;;;;0.20;0.20;;;;;;;23.07;38.47;100093.59;4992629;28;20046;-66
2023/04/19 09:49:18;;;;;;;0.20;0.20;;;;;;;23.51;38.73;100092.59;4992701;28;20380;-66
2023/04/19 09:51:48;;;;;;;0.20;0.20;;;;;;;23.70;37.65;100084.31;4992741;28;20034;-67
2023/04/19 09:54:19;;;;;;;0.20;0.20;;;;;;;22.87;38.34;100090.88;4992618;28;20457;-66
2023/04/19 09:56:45;;;;;;;0.20;0.20;;;;;;;23.38;37.72;100086.09;4992797;28;20026;-67
2023/04/19 09:59:11;;;;;;;0.20;0.20;;;;;;;23.40;37.75;100086.47;4992663;28;20151;-67
2023/04/19 10:01:58;;;;;;;0.20;0.20;;;;;;;23.56;36.76;100096.91;4992631;28;20488;-66
2023/04/19 10:04:26;;;;;;;0.20;0.20;;;;;;;22.29;38.39;100086.00;4992710;28;20084;-66
2023/04/19 10:06:53;;;;;;;0.20;0.20;;;;;;;22.80;37.40;100086.22;4992896;28;20054;-66
2023/04/19 10:09:22;;;;;;;0.20;0.20;;;;;;;23.73;36.29;100078.53;4993153;28;20084;-66
2023/04/19 10:12:00;;;;;;;0.20;0.20;;;;;;;23.12;37.50;100071.13;4992585;28;20027;-66
2023/04/19 10:14:32;;;;;;;0.20;0.20;;;;;;;23.18;37.21;100082.69;4994057;28;20041;-66
2023/04/19 10:17:00;;;;;;;0.20;0.20;;;;;;;23.45;37.23;100085.91;4992761;28;20050;-67
2023/04/19 10:19:26;;;;;;;0.20;0.20;;;;;;;23.83;38.01;100070.91;4992954;28;20043;-67
2023/04/19 10:21:58;;;;;;;0.20;0.20;;;;;;;23.79;38.44;100070.22;4992663;28;20026;-67
2023/04/19 10:24:27;;;;;;;0.20;0.20;;;;;;;23.61;40.68;100070.78;4992418;28;20125;-68
2023/04/19 10:27:11;;;;;;;0.20;0.20;;;;;;;22.69;41.26;100065.84;4993913;28;20046;-67
2023/04/19 10:30:06;;;;;;;0.20;0.20;;;;;;;22.11;42.91;100063.81;4991978;28;20109;-68
2023/04/19 10:32:43;;;;;;;0.20;0.20;;;;;;;21.79;43.25;100069.47;4992611;28;20033;-67
2023/04/19 10:35:20;;;;;;;0.20;0.20;;;;;;;21.81;42.67;100061.31;4992312;28;20066;-67
2023/04/19 10:38:10;;;;;;;0.20;0.20;;;;;;;22.55;41.21;100046.44;4996195;28;20502;-66
2023/04/19 10:40:53;;;;;;;0.20;0.20;;;;;;;23.30;40.13;100059.22;4997260;28;20089;-66
2023/04/19 10:43:19;;;;;;;0.20;0.20;;;;;;;23.61;39.80;100058.66;4995858;28;20030;-66
2023/04/19 10:45:47;;;;;;;0.20;0.20;;;;;;;24.29;39.42;100060.00;4995781;28;20037;-67
2023/04/19 10:48:26;;;;;;;0.20;0.20;;;;;;;23.56;39.79;100059.22;4995960;28;20501;-66
2023/04/19 10:51:03;;;;;;;0.20;0.20;;;;;;;22.74;40.80;100059.63;4996637;28;20066;-67
2023/04/19 10:53:47;;;;;;;0.20;0.20;;;;;;;23.72;40.26;100053.44;4996195;28;20022;-66
2023/04/19 10:56:14;;;;;;;0.20;0.20;;;;;;;23.73;40.29;100055.03;4996153;28;20027;-66
2023/04/19 10:59:09;;;;;;;0.20;0.20;;;;;;;23.28;39.92;100044.69;4996062;28;20034;-66
2023/04/19 11:01:39;;;;;;;0.20;0.20;;;;;;;22.52;40.71;100042.44;4995467;28;20110;-68
2023/04/19 11:04:06;;;;;;;0.20;0.20;;;;;;;23.26;39.97;100036.59;4995362;28;20026;-67
2023/04/19 11:06:33;;;;;;;0.20;0.20;;;;;;;24.32;38.24;100042.03;4995907;28;20026;-67
2023/04/19 11:09:03;;;;;;;0.20;0.20;;;;;;;24.74;37.61;100036.84;4995444;28;20469;-67
2023/04/19 11:11:34;;;;;;;0.20;0.20;;;;;;;24.41;38.72;100042.13;4995871;28;20058;-67
2023/04/19 11:14:01;;;;;;;0.20;0.20;;;;;;;23.94;39.40;100042.94;4995171;28;20089;-66
2023/04/19 11:16:29;;;;;;;0.20;0.20;;;;;;;22.97;39.69;100028.19;4996004;28;20182;-67
2023/04/19 11:18:55;;;;;;;0.20;0.20;;;;;;;22.52;40.14;100030.31;4995219;28;20038;-67
2023/04/19 11:21:22;;;;;;;0.20;0.20;;;;;;;21.49;43.02;100028.94;4995206;28;20035;-67
2023/04/19 11:23:52;;;;;;;0.20;0.20;;;;;;;21.67;42.71;100034.16;4995224;28;20182;-66
2023/04/19 11:26:18;;;;;;;0.20;0.20;;;;;;;21.51;43.96;100031.31;4995737;28;20034;-66
2023/04/19 11:28:43;;;;;;;0.10;0.10;;;;;;;21.04;44.30;100023.06;4997555;28;20496;-66